Time;durP1;ratioP1;P1;durP2;ratioP2;P2;SDS_P1;SDS_P2;PMS_P1;PMS_P2;Temp;Humidity;BMP_temperature;BMP_pressure;BME280_temperature;BME280_humidity;BME280_pressure;Samples;Min_cycle;Max_cycle;Signal;HPM_P1;HPM_P2
2023/06/09 00:00:17;;;;;;;15.20;13.70;;;;;;;17.93;100.00;98659.85;109095;1253;59859;-72
2023/06/09 00:03:05;;;;;;;15.70;14.30;;;;;;;17.93;100.00;98663.85;109382;1253;63615;-72
2023/06/09 00:05:33;;;;;;;15.80;14.30;;;;;;;17.92;100.00;98661.93;109344;1254;59346;-71
2023/06/09 00:08:00;;;;;;;14.80;13.40;;;;;;;17.91;100.00;98658.83;109365;1253;59044;-72
2023/06/09 00:10:27;;;;;;;16.10;14.70;;;;;;;17.90;100.00;98657.09;109386;1253;65955;-72
2023/06/09 00:12:54;;;;;;;16.50;15.00;;;;;;;17.90;100.00;98655.52;109392;1253;59192;-72
2023/06/09 00:15:21;;;;;;;16.60;15.00;;;;;;;17.89;100.00;98655.03;109400;1253;64176;-71
2023/06/09 00:17:48;;;;;;;17.20;15.60;;;;;;;17.89;100.00;98651.80;109382;1253;58969;-71
2023/06/09 00:20:15;;;;;;;16.50;14.90;;;;;;;17.87;100.00;98651.14;109374;1253;59211;-71
2023/06/09 00:22:44;;;;;;;15.60;14.20;;;;;;;17.86;100.00;98656.09;109394;1253;66307;-71
2023/06/09 00:25:15;;;;;;;17.10;15.40;;;;;;;17.85;100.00;98652.11;109346;1253;59100;-71
2023/06/09 00:27:45;;;;;;;16.30;14.70;;;;;;;17.83;100.00;98651.24;109373;1253;62570;-71
2023/06/09 00:30:15;;;;;;;17.30;15.70;;;;;;;17.82;100.00;98646.96;109120;1253;59076;-72
2023/06/09 00:32:42;;;;;;;17.00;15.40;;;;;;;17.82;100.00;98647.17;109378;1253;59114;-72
2023/06/09 00:35:09;;;;;;;16.70;15.20;;;;;;;17.82;100.00;98646.65;109367;1253;64811;-71
2023/06/09 00:37:35;;;;;;;17.60;15.80;;;;;;;17.82;100.00;98642.00;109394;1253;59864;-72
2023/06/09 00:40:03;;;;;;;16.70;15.00;;;;;;;17.82;100.00;98643.09;109372;1253;58982;-72
2023/06/09 00:42:30;;;;;;;17.20;15.50;;;;;;;17.82;100.00;98641.77;109344;1253;59498;-71
2023/06/09 00:44:57;;;;;;;17.00;15.50;;;;;;;17.81;100.00;98645.30;109036;1253;59021;-71
2023/06/09 00:47:23;;;;;;;16.80;15.30;;;;;;;17.81;100.00;98642.84;109363;1253;59499;-72
2023/06/09 00:49:50;;;;;;;18.00;16.30;;;;;;;17.79;100.00;98644.40;109350;1253;60268;-73
2023/06/09 00:52:16;;;;;;;17.60;15.90;;;;;;;17.78;100.00;98642.35;109348;1253;63000;-71
2023/06/09 00:54:44;;;;;;;18.90;17.00;;;;;;;17.77;100.00;98644.01;109326;1253;59027;-71
2023/06/09 00:57:11;;;;;;;18.70;16.90;;;;;;;17.78;100.00;98644.86;109381;1253;59369;-72
2023/06/09 00:59:38;;;;;;;18.70;16.90;;;;;;;17.79;100.00;98647.87;109016;1253;66135;-72
2023/06/09 01:02:05;;;;;;;16.90;15.20;;;;;;;17.77;100.00;98650.70;109385;1253;59322;-72
2023/06/09 01:04:34;;;;;;;18.10;16.40;;;;;;;17.74;100.00;98647.02;109328;1253;65517;-72
2023/06/09 01:07:03;;;;;;;17.10;15.60;;;;;;;17.71;100.00;98642.67;109376;1253;59034;-71
2023/06/09 01:09:38;;;;;;;16.90;15.30;;;;;;;17.68;100.00;98637.45;109349;1253;58863;-71
2023/06/09 01:12:11;;;;;;;18.60;16.90;;;;;;;17.66;100.00;98632.10;109377;1253;66047;-72
2023/06/09 01:15:02;;;;;;;17.50;15.90;;;;;;;17.64;100.00;98627.83;109387;1253;59350;-72
2023/06/09 01:17:32;;;;;;;20.10;18.30;;;;;;;17.62;100.00;98625.19;109385;1253;62843;-72
2023/06/09 01:20:05;;;;;;;18.50;16.80;;;;;;;17.61;100.00;98625.72;109396;1253;58957;-72
2023/06/09 01:22:52;;;;;;;21.10;19.10;;;;;;;17.62;100.00;98624.02;109368;1253;59036;-72
2023/06/09 01:25:37;;;;;;;19.90;17.80;;;;;;;17.62;100.00;98622.93;109334;1253;64506;-71
2023/06/09 01:28:07;;;;;;;20.80;19.00;;;;;;;17.61;100.00;98621.48;109085;1253;60034;-71
2023/06/09 01:30:36;;;;;;;21.00;18.90;;;;;;;17.60;100.00;98619.25;109347;1253;64045;-72
2023/06/09 01:33:07;;;;;;;22.00;19.90;;;;;;;17.61;100.00;98617.83;109361;1253;59205;-71
2023/06/09 01:35:34;;;;;;;22.90;20.50;;;;;;;17.62;100.00;98614.71;109415;1253;59046;-72
2023/06/09 01:38:01;;;;;;;22.10;19.80;;;;;;;17.63;100.00;98611.95;109360;1253;65760;-72
2023/06/09 01:40:29;;;;;;;22.00;19.80;;;;;;;17.62;100.00;98610.77;109385;1253;59125;-72
2023/06/09 01:43:04;;;;;;;21.70;19.70;;;;;;;17.60;100.00;98612.04;109014;1253;62508;-72
2023/06/09 01:45:30;;;;;;;22.00;19.90;;;;;;;17.58;100.00;98610.46;109018;1253;59006;-72
2023/06/09 01:47:57;;;;;;;22.50;20.30;;;;;;;17.57;100.00;98607.33;109366;1253;59036;-72
2023/06/09 01:50:59;;;;;;;23.30;20.90;;;;;;;17.55;100.00;98602.67;109382;1253;65743;-71
2023/06/09 01:53:30;;;;;;;22.40;20.20;;;;;;;17.53;100.00;98600.48;108715;1263;59166;-72
2023/06/09 01:56:30;;;;;;;24.80;22.20;;;;;;;17.52;100.00;98601.87;108693;1262;64107;-72
2023/06/09 01:59:04;;;;;;;23.50;21.00;;;;;;;17.50;100.00;98596.20;108702;1262;59531;-72
2023/06/09 02:01:32;;;;;;;23.30;20.90;;;;;;;17.47;100.00;98596.08;108732;1262;59930;-71
2023/06/09 02:04:00;;;;;;;26.30;23.50;;;;;;;17.44;100.00;98595.81;108660;1262;64983;-71
2023/06/09 02:06:27;;;;;;;25.70;23.20;;;;;;;17.42;100.00;98593.02;108759;1263;61246;-71
2023/06/09 02:08:54;;;;;;;26.50;23.80;;;;;;;17.40;100.00;98588.73;108699;1262;62482;-72
2023/06/09 02:11:21;;;;;;;25.70;23.20;;;;;;;17.38;100.00;98586.64;108715;1263;59071;-72
2023/06/09 02:13:54;;;;;;;27.70;24.80;;;;;;;17.36;100.00;98587.70;108759;1262;59317;-72
2023/06/09 02:16:22;;;;;;;29.30;26.30;;;;;;;17.36;100.00;98587.16;108716;1264;66034;-72
2023/06/09 02:18:49;;;;;;;27.40;24.60;;;;;;;17.37;100.00;98585.85;108715;1262;59371;-72
2023/06/09 02:21:15;;;;;;;26.60;23.80;;;;;;;17.37;100.00;98586.38;108692;1264;62895;-71
2023/06/09 02:23:42;;;;;;;27.50;24.70;;;;;;;17.37;100.00;98584.23;108720;1262;59473;-71
2023/06/09 02:26:08;;;;;;;27.00;24.30;;;;;;;17.36;100.00;98583.96;108746;1262;59201;-71
2023/06/09 02:28:35;;;;;;;25.40;23.00;;;;;;;17.36;100.00;98580.92;108713;1264;66053;-72
2023/06/09 02:31:03;;;;;;;27.30;24.40;;;;;;;17.36;100.00;98582.01;109154;1253;59044;-71
2023/06/09 02:33:30;;;;;;;26.40;23.90;;;;;;;17.36;100.00;98577.50;109425;1253;62833;-72
2023/06/09 02:35:57;;;;;;;27.50;24.60;;;;;;;17.36;100.00;98581.40;109394;1253;59084;-72
2023/06/09 02:38:24;;;;;;;28.80;25.80;;;;;;;17.36;100.00;98582.14;109421;1253;59134;-72
2023/06/09 02:40:50;;;;;;;28.70;25.70;;;;;;;17.36;100.00;98580.66;109395;1253;64494;-71
2023/06/09 02:43:17;;;;;;;30.90;27.60;;;;;;;17.38;100.00;98581.80;109376;1253;59891;-72
2023/06/09 02:45:44;;;;;;;29.20;26.10;;;;;;;17.37;100.00;98585.96;109355;1253;62702;-71
2023/06/09 02:48:13;;;;;;;29.80;26.20;;;;;;;17.37;100.00;98583.48;109415;1253;59178;-72
2023/06/09 02:50:39;;;;;;;28.90;25.90;;;;;;;17.37;100.00;98586.38;109432;1253;58963;-72
2023/06/09 02:53:07;;;;;;;29.60;26.60;;;;;;;17.38;100.00;98589.69;109348;1253;59320;-72
2023/06/09 02:55:34;;;;;;;27.80;25.00;;;;;;;17.38;100.00;98588.79;109405;1253;60329;-71
2023/06/09 02:58:00;;;;;;;27.50;24.80;;;;;;;17.39;100.00;98597.69;109368;1253;64011;-73
2023/06/09 03:00:27;;;;;;;28.00;25.30;;;;;;;17.39;100.00;98600.92;109046;1253;59038;-71
2023/06/09 03:02:54;;;;;;;28.80;25.80;;;;;;;17.38;100.00;98599.70;109385;1253;59158;-71
2023/06/09 03:05:20;;;;;;;28.00;25.10;;;;;;;17.38;100.00;98596.13;109387;1253;66118;-72
2023/06/09 03:07:48;;;;;;;27.10;24.20;;;;;;;17.39;100.00;98601.45;109383;1253;58975;-72
2023/06/09 03:10:15;;;;;;;26.50;23.90;;;;;;;17.39;100.00;98603.71;109415;1253;62696;-72
2023/06/09 03:12:41;;;;;;;26.00;23.40;;;;;;;17.40;100.00;98604.02;109376;1253;58984;-71
2023/06/09 03:15:08;;;;;;;24.60;22.20;;;;;;;17.42;100.00;98608.52;109377;1253;59055;-72
2023/06/09 03:17:34;;;;;;;25.50;22.90;;;;;;;17.42;100.00;98610.44;108967;1253;65929;-72
2023/06/09 03:20:01;;;;;;;25.70;23.10;;;;;;;17.42;100.00;98612.76;109401;1253;59981;-72
2023/06/09 03:22:28;;;;;;;27.20;24.30;;;;;;;17.42;100.00;98616.33;109329;1253;62656;-72
2023/06/09 03:24:55;;;;;;;26.50;23.80;;;;;;;17.43;100.00;98619.19;109344;1253;59305;-71
2023/06/09 03:27:22;;;;;;;26.90;24.30;;;;;;;17.44;100.00;98619.41;109135;1253;59010;-71
2023/06/09 03:29:48;;;;;;;27.70;25.00;;;;;;;17.46;100.00;98617.59;109351;1253;59043;-71
2023/06/09 03:32:15;;;;;;;26.40;23.80;;;;;;;17.47;100.00;98615.84;109401;1253;58997;-71
2023/06/09 03:34:41;;;;;;;28.90;25.90;;;;;;;17.50;100.00;98611.45;109372;1253;65710;-71
2023/06/09 03:37:10;;;;;;;28.40;25.50;;;;;;;17.52;100.00;98616.34;109344;1253;59338;-71
2023/06/09 03:39:36;;;;;;;26.80;24.10;;;;;;;17.55;100.00;98621.70;109428;1253;59020;-71
2023/06/09 03:42:03;;;;;;;26.80;24.00;;;;;;;17.57;100.00;98627.77;109380;1253;59772;-72
2023/06/09 03:44:30;;;;;;;27.40;24.20;;;;;;;17.58;100.00;98631.41;109418;1253;58935;-71
2023/06/09 03:46:57;;;;;;;26.90;24.00;;;;;;;17.58;100.00;98637.00;109408;1253;62976;-72
2023/06/09 03:49:23;;;;;;;27.80;24.80;;;;;;;17.57;100.00;98639.97;109390;1253;59084;-72
2023/06/09 03:51:49;;;;;;;27.20;24.40;;;;;;;17.58;100.00;98642.06;109429;1253;58809;-72
2023/06/09 03:54:16;;;;;;;27.70;24.80;;;;;;;17.59;100.00;98645.52;109397;1253;59685;-71
2023/06/09 03:56:43;;;;;;;28.80;25.80;;;;;;;17.61;100.00;98646.04;109076;1253;59200;-72
2023/06/09 03:59:09;;;;;;;27.80;25.00;;;;;;;17.64;100.00;98644.51;109385;1253;59064;-72
2023/06/09 04:01:36;;;;;;;27.10;24.30;;;;;;;17.66;100.00;98650.02;109164;1253;59023;-72
2023/06/09 04:04:02;;;;;;;27.30;24.40;;;;;;;17.69;100.00;98652.57;109396;1253;58824;-72
2023/06/09 04:06:29;;;;;;;29.30;26.30;;;;;;;17.72;100.00;98651.95;109412;1253;66134;-72
2023/06/09 04:08:55;;;;;;;30.00;26.90;;;;;;;17.74;100.00;98647.17;109393;1253;59051;-72
2023/06/09 04:11:21;;;;;;;29.20;26.30;;;;;;;17.77;100.00;98646.16;109396;1253;59334;-71
2023/06/09 04:13:48;;;;;;;29.30;26.30;;;;;;;17.81;100.00;98644.56;109381;1253;59092;-71
2023/06/09 04:16:16;;;;;;;27.70;24.80;;;;;;;17.84;100.00;98643.20;109063;1253;59066;-72
2023/06/09 04:18:43;;;;;;;29.80;26.70;;;;;;;17.85;100.00;98638.59;109424;1253;66057;-72
2023/06/09 04:21:11;;;;;;;27.50;24.50;;;;;;;17.89;100.00;98633.30;109412;1253;60097;-72
2023/06/09 04:23:39;;;;;;;28.90;24.80;;;;;;;17.93;100.00;98635.55;109378;1253;71550;-72
2023/06/09 04:26:08;;;;;;;29.70;26.90;;;;;;;17.95;100.00;98634.13;109410;1253;59072;-72
2023/06/09 04:28:35;;;;;;;28.40;25.40;;;;;;;17.99;100.00;98633.34;109363;1253;59017;-72
2023/06/09 04:31:02;;;;;;;30.20;26.60;;;;;;;18.03;100.00;98630.09;109400;1253;64526;-72
2023/06/09 04:33:29;;;;;;;32.10;28.40;;;;;;;18.07;100.00;98628.92;109415;1253;60623;-72
2023/06/09 04:35:55;;;;;;;29.80;26.70;;;;;;;18.13;100.00;98628.30;109041;1253;62815;-72
2023/06/09 04:38:23;;;;;;;33.50;28.10;;;;;;;18.20;100.00;98625.63;109387;1253;58949;-81
2023/06/09 04:40:50;;;;;;;34.40;29.30;;;;;;;18.29;100.00;98621.98;109375;1256;59045;-79
2023/06/09 04:43:18;;;;;;;33.40;27.90;;;;;;;18.41;100.00;98623.98;109313;1254;64805;-83
2023/06/09 04:45:44;;;;;;;32.00;26.70;;;;;;;18.49;100.00;98623.14;109353;1253;59957;-85
2023/06/09 04:48:12;;;;;;;35.90;28.50;;;;;;;18.56;100.00;98620.78;109372;1253;63891;-81
2023/06/09 04:50:39;;;;;;;33.60;28.00;;;;;;;18.64;100.00;98624.55;109361;1253;59018;-79
2023/06/09 04:53:07;;;;;;;31.80;27.80;;;;;;;18.72;100.00;98625.54;109426;1253;58851;-84
2023/06/09 04:55:36;;;;;;;32.40;27.70;;;;;;;18.81;100.00;98629.33;109143;1253;66720;-83
2023/06/09 04:58:03;;;;;;;30.20;26.40;;;;;;;18.89;100.00;98629.02;109422;1253;58999;-92
2023/06/09 05:00:30;;;;;;;30.40;27.00;;;;;;;18.94;100.00;98626.27;109423;1253;62536;-79
2023/06/09 05:03:01;;;;;;;29.80;26.60;;;;;;;18.97;100.00;98625.36;109445;1253;59106;-81
2023/06/09 05:05:27;;;;;;;29.80;26.50;;;;;;;19.00;100.00;98630.90;109488;1253;59092;-75
2023/06/09 05:07:54;;;;;;;29.20;25.70;;;;;;;19.06;100.00;98633.04;109502;1252;65863;-76
2023/06/09 05:10:21;;;;;;;28.40;25.10;;;;;;;19.18;100.00;98637.17;109538;1253;61387;-75
2023/06/09 05:12:48;;;;;;;32.30;26.10;;;;;;;19.31;100.00;98635.74;109483;1252;62747;-75
2023/06/09 05:15:16;;;;;;;28.10;25.00;;;;;;;19.49;100.00;98631.65;109437;1253;59003;-76
2023/06/09 05:17:42;;;;;;;27.70;24.80;;;;;;;19.72;100.00;98629.00;109450;1253;59128;-76
2023/06/09 05:20:10;;;;;;;27.20;23.50;;;;;;;19.93;100.00;98629.48;109511;1253;65779;-76
2023/06/09 05:22:37;;;;;;;27.10;23.20;;;;;;;20.01;100.00;98630.22;109509;1253;60161;-77
2023/06/09 05:25:06;;;;;;;28.40;24.40;;;;;;;20.08;100.00;98631.92;109514;1253;63414;-76
2023/06/09 05:27:32;;;;;;;27.90;24.30;;;;;;;20.11;100.00;98638.15;109461;1253;58961;-75
2023/06/09 05:29:59;;;;;;;29.30;24.10;;;;;;;20.13;100.00;98635.23;109148;1253;59065;-77
2023/06/09 05:32:25;;;;;;;23.70;21.10;;;;;;;20.17;100.00;98631.90;109499;1253;67317;-75
2023/06/09 05:34:52;;;;;;;26.80;23.80;;;;;;;20.20;100.00;98629.23;109523;1253;59804;-76
2023/06/09 05:37:19;;;;;;;24.60;21.80;;;;;;;20.22;100.00;98632.00;109462;1252;64075;-77
2023/06/09 05:39:45;;;;;;;25.40;22.80;;;;;;;20.34;100.00;98629.26;109486;1253;58998;-77
2023/06/09 05:42:13;;;;;;;28.70;23.70;;;;;;;20.48;100.00;98632.15;109298;1252;58988;-76
2023/06/09 05:44:39;;;;;;;24.00;21.40;;;;;;;20.54;100.00;98630.63;109490;1253;65858;-76
2023/06/09 05:47:06;;;;;;;25.00;21.90;;;;;;;20.49;100.00;98629.91;109485;1253;59057;-76
2023/06/09 05:49:34;;;;;;;25.10;22.30;;;;;;;20.52;100.00;98630.09;109488;1253;62501;-77
2023/06/09 05:52:01;;;;;;;26.00;22.60;;;;;;;20.63;100.00;98630.60;109140;1252;59149;-76
2023/06/09 05:54:28;;;;;;;25.90;21.90;;;;;;;20.74;100.00;98633.33;109539;1252;59056;-78
2023/06/09 05:56:54;;;;;;;24.60;22.10;;;;;;;20.79;100.00;98631.50;109543;1253;66997;-75
2023/06/09 05:59:21;;;;;;;24.60;22.20;;;;;;;20.81;100.00;98632.38;109473;1253;59342;-78
2023/06/09 06:01:48;;;;;;;26.00;22.90;;;;;;;20.84;100.00;98634.80;109445;1253;63319;-77
2023/06/09 06:04:15;;;;;;;25.60;22.80;;;;;;;20.78;100.00;98634.94;109467;1253;58990;-77
2023/06/09 06:06:41;;;;;;;26.10;23.20;;;;;;;20.70;100.00;98639.80;109189;1253;59026;-77
2023/06/09 06:09:08;;;;;;;24.50;21.90;;;;;;;20.65;100.00;98640.00;109546;1252;65885;-77
2023/06/09 06:11:35;;;;;;;24.80;22.30;;;;;;;20.62;100.00;98646.71;109490;1253;59021;-78
2023/06/09 06:14:01;;;;;;;24.30;21.90;;;;;;;20.57;100.00;98650.48;109516;1253;59085;-77
2023/06/09 06:16:28;;;;;;;22.70;20.50;;;;;;;20.57;100.00;98655.73;109137;1253;58996;-76
2023/06/09 06:18:55;;;;;;;21.30;19.00;;;;;;;20.55;100.00;98661.73;109463;1253;59035;-77
2023/06/09 06:21:21;;;;;;;20.90;18.60;;;;;;;20.57;100.00;98661.85;109502;1253;59805;-77
2023/06/09 06:23:48;;;;;;;21.60;19.40;;;;;;;20.68;100.00;98665.61;109488;1253;60178;-77
2023/06/09 06:26:14;;;;;;;22.70;20.50;;;;;;;20.81;100.00;98669.09;109501;1252;58998;-77
2023/06/09 06:28:41;;;;;;;22.60;20.30;;;;;;;20.95;100.00;98670.55;109261;1252;59027;-75
2023/06/09 06:31:08;;;;;;;22.50;20.40;;;;;;;21.06;100.00;98669.73;109515;1252;59145;-75
2023/06/09 06:33:34;;;;;;;21.30;19.20;;;;;;;21.19;100.00;98669.73;109487;1253;66477;-76
2023/06/09 06:36:01;;;;;;;22.70;20.40;;;;;;;21.29;100.00;98666.80;109500;1253;60141;-75
2023/06/09 06:38:27;;;;;;;22.70;20.50;;;;;;;21.36;100.00;98668.58;109502;1253;64134;-76
2023/06/09 06:40:54;;;;;;;23.10;20.90;;;;;;;21.47;100.00;98670.45;109333;1256;142839;-76
2023/06/09 06:43:21;;;;;;;22.80;20.70;;;;;;;21.72;100.00;98673.52;109252;1253;59016;-75
2023/06/09 06:45:48;;;;;;;21.50;19.40;;;;;;;22.01;100.00;98672.77;109522;1253;66367;-76
2023/06/09 06:48:14;;;;;;;21.80;19.70;;;;;;;22.15;100.00;98667.08;109509;1253;58994;-76
2023/06/09 06:50:40;;;;;;;22.10;20.00;;;;;;;22.31;100.00;98667.17;109503;1253;59012;-74
2023/06/09 06:53:10;;;;;;;21.70;19.60;;;;;;;22.47;100.00;98669.71;109519;1252;58974;-75
2023/06/09 06:55:37;;;;;;;23.00;20.80;;;;;;;22.60;100.00;98670.18;109482;1253;58986;-75
2023/06/09 06:58:03;;;;;;;22.40;20.20;;;;;;;22.73;100.00;98668.31;109504;1253;65829;-76
2023/06/09 07:00:29;;;;;;;21.50;19.50;;;;;;;22.91;100.00;98668.86;109489;1253;59037;-76
2023/06/09 07:02:56;;;;;;;22.20;20.00;;;;;;;23.33;100.00;98671.10;109515;1252;59351;-76
2023/06/09 07:05:23;;;;;;;18.80;17.00;;;;;;;23.87;100.00;98669.75;109180;1252;61075;-75
2023/06/09 07:07:50;;;;;;;19.30;17.60;;;;;;;24.13;100.00;98668.41;109160;1259;59038;-76
2023/06/09 07:10:16;;;;;;;18.30;16.60;;;;;;;24.42;100.00;98669.97;109480;1253;66149;-76
2023/06/09 07:12:43;;;;;;;17.80;16.30;;;;;;;24.63;100.00;98671.21;109521;1252;61386;-75
2023/06/09 07:15:10;;;;;;;18.30;16.50;;;;;;;24.73;100.00;98672.90;109502;1253;59093;-76
2023/06/09 07:17:36;;;;;;;17.50;16.10;;;;;;;25.18;100.00;98665.08;109453;1252;59049;-74
2023/06/09 07:20:03;;;;;;;18.70;17.20;;;;;;;25.63;100.00;98662.83;109499;1253;59019;-76
2023/06/09 07:22:33;;;;;;;17.30;15.90;;;;;;;25.71;100.00;98659.94;109525;1253;65969;-75
2023/06/09 07:25:00;;;;;;;16.90;15.50;;;;;;;25.79;100.00;98659.41;109471;1253;59271;-75
2023/06/09 07:27:27;;;;;;;19.70;15.80;;;;;;;25.87;100.00;98662.11;109515;1253;62976;-75
2023/06/09 07:29:53;;;;;;;18.20;16.70;;;;;;;25.74;100.00;98657.35;109504;1253;59349;-76
2023/06/09 07:32:20;;;;;;;18.00;16.40;;;;;;;25.56;100.00;98656.73;109462;1253;58982;-76
2023/06/09 07:34:47;;;;;;;17.50;15.90;;;;;;;25.58;100.00;98656.02;109489;1253;66061;-76
2023/06/09 07:37:13;;;;;;;17.20;15.70;;;;;;;25.73;100.00;98658.30;109527;1253;60189;-75
2023/06/09 07:39:40;;;;;;;17.10;15.60;;;;;;;25.99;100.00;98659.09;109493;1253;62873;-75
2023/06/09 07:42:06;;;;;;;16.00;14.70;;;;;;;26.32;100.00;98654.45;109521;1253;59128;-75
2023/06/09 07:44:34;;;;;;;15.20;14.00;;;;;;;26.70;100.00;98656.66;109551;1253;58994;-75
2023/06/09 07:47:01;;;;;;;17.50;15.80;;;;;;;26.94;100.00;98657.35;109511;1252;65808;-75
2023/06/09 07:49:28;;;;;;;17.20;15.80;;;;;;;26.97;100.00;98658.63;109480;1253;60000;-75
2023/06/09 07:51:55;;;;;;;17.50;15.90;;;;;;;26.91;100.00;98662.36;109492;1253;62878;-75
2023/06/09 07:54:22;;;;;;;18.70;17.10;;;;;;;26.92;100.00;98656.00;109496;1254;59022;-75
2023/06/09 07:56:49;;;;;;;15.70;14.40;;;;;;;27.12;100.00;98652.52;109280;1253;58978;-75
2023/06/09 07:59:17;;;;;;;16.90;15.60;;;;;;;27.34;100.00;98653.31;109477;1253;66133;-74
2023/06/09 08:01:45;;;;;;;17.20;15.70;;;;;;;27.43;100.00;98651.78;109522;1253;58979;-75
2023/06/09 08:04:11;;;;;;;15.60;14.00;;;;;;;27.64;100.00;98647.81;109464;1253;63879;-75
2023/06/09 08:06:38;;;;;;;14.50;13.40;;;;;;;27.74;100.00;98650.81;109137;1253;59498;-74
2023/06/09 08:09:05;;;;;;;13.60;12.70;;;;;;;27.71;100.00;98648.60;109529;1252;59114;-75
2023/06/09 08:11:32;;;;;;;15.00;13.60;;;;;;;27.72;100.00;98650.23;109525;1254;66035;-75
2023/06/09 08:13:58;;;;;;;14.80;13.70;;;;;;;27.71;100.00;98650.16;109511;1253;59972;-76
2023/06/09 08:16:25;;;;;;;13.50;12.40;;;;;;;27.65;100.00;98649.73;109526;1252;62855;-75
2023/06/09 08:18:51;;;;;;;15.00;13.80;;;;;;;27.46;100.00;98653.41;109535;1253;58958;-75
2023/06/09 08:21:18;;;;;;;14.80;13.50;;;;;;;27.25;100.00;98654.73;109509;1254;59055;-76
2023/06/09 08:23:44;;;;;;;15.00;13.80;;;;;;;27.12;100.00;98656.64;109490;1253;66103;-73
2023/06/09 08:26:11;;;;;;;15.30;14.20;;;;;;;26.75;100.00;98651.85;109576;1253;60190;-75
2023/06/09 08:28:40;;;;;;;16.50;15.20;;;;;;;26.79;100.00;98648.14;109470;1253;62858;-75
2023/06/09 08:31:08;;;;;;;;;;;;;;;26.99;100.00;98649.11;109513;1253;59278;-75
2023/06/09 08:33:36;;;;;;;16.00;14.50;;;;;;;27.00;100.00;98648.05;109528;1252;59028;-75
2023/06/09 08:36:03;;;;;;;16.60;15.20;;;;;;;26.78;100.00;98651.00;109369;1253;67407;-73
2023/06/09 08:38:35;;;;;;;17.20;15.80;;;;;;;26.70;100.00;98651.95;109504;1253;60161;-76
2023/06/09 08:41:10;;;;;;;16.70;15.40;;;;;;;26.74;100.00;98645.38;109494;1253;62583;-75
2023/06/09 08:43:37;;;;;;;17.00;15.70;;;;;;;26.70;100.00;98639.89;109508;1253;58981;-75
2023/06/09 08:46:06;;;;;;;16.40;14.90;;;;;;;26.42;100.00;98636.91;109477;1253;59115;-75
2023/06/09 08:48:37;;;;;;;17.50;16.00;;;;;;;26.01;100.00;98636.20;109197;1253;66085;-76
2023/06/09 08:51:05;;;;;;;16.70;15.40;;;;;;;25.82;100.00;98631.61;108999;1253;60088;-75
2023/06/09 08:53:33;;;;;;;17.70;16.20;;;;;;;25.69;100.00;98629.27;109345;1253;63126;-76
2023/06/09 08:56:01;;;;;;;16.70;15.40;;;;;;;25.60;100.00;98628.42;109519;1252;59312;-75
2023/06/09 08:58:29;;;;;;;17.70;16.40;;;;;;;25.57;100.00;98629.81;109525;1253;59035;-75
2023/06/09 09:00:56;;;;;;;17.50;15.70;;;;;;;25.62;100.00;98626.55;109532;1253;64971;-76
2023/06/09 09:03:23;;;;;;;18.40;16.80;;;;;;;25.89;100.00;98621.87;109459;1253;59860;-75
2023/06/09 09:05:50;;;;;;;17.60;16.10;;;;;;;26.38;100.00;98614.22;109499;1253;63792;-75
2023/06/09 09:08:19;;;;;;;17.30;15.70;;;;;;;26.82;100.00;98610.86;109499;1253;59033;-76
2023/06/09 09:10:46;;;;;;;17.10;15.80;;;;;;;27.16;100.00;98614.37;109252;1253;59036;-76
2023/06/09 09:13:13;;;;;;;15.60;14.20;;;;;;;27.23;100.00;98617.92;109165;1253;65746;-75
2023/06/09 09:15:48;;;;;;;16.10;14.80;;;;;;;27.22;100.00;98617.52;109518;1254;58977;-76
2023/06/09 09:18:16;;;;;;;16.90;15.50;;;;;;;27.36;100.00;98610.44;109177;1252;64041;-76
2023/06/09 09:20:44;;;;;;;15.30;14.10;;;;;;;27.50;100.00;98607.09;109505;1253;58946;-75
2023/06/09 09:23:11;;;;;;;14.50;13.40;;;;;;;27.71;100.00;98601.89;109509;1253;59105;-76
2023/06/09 09:25:38;;;;;;;15.80;14.30;;;;;;;27.88;100.00;98602.14;109473;1253;65897;-75
2023/06/09 09:28:09;;;;;;;14.60;13.20;;;;;;;27.97;100.00;98599.20;109511;1253;59156;-75
2023/06/09 09:30:45;;;;;;;14.10;12.90;;;;;;;28.03;100.00;98596.71;109434;1253;64097;-76
2023/06/09 09:33:14;;;;;;;14.20;13.10;;;;;;;28.09;100.00;98594.20;109522;1253;59456;-75
2023/06/09 09:35:47;;;;;;;15.00;13.80;;;;;;;28.38;100.00;98595.30;109226;1254;59116;-75
2023/06/09 09:38:16;;;;;;;14.90;13.70;;;;;;;28.72;100.00;98588.27;109240;1253;64869;-76
2023/06/09 09:40:45;;;;;;;14.30;13.30;;;;;;;28.91;100.00;98586.59;109460;1253;59853;-75
2023/06/09 09:43:12;;;;;;;14.10;13.00;;;;;;;28.94;100.00;98580.65;109391;1257;64280;-75
2023/06/09 09:45:43;;;;;;;13.30;12.30;;;;;;;29.21;100.00;98577.71;109377;1256;59105;-76
2023/06/09 09:48:11;;;;;;;13.60;12.40;;;;;;;29.55;100.00;98574.41;109443;1253;59031;-75
2023/06/09 09:50:40;;;;;;;14.00;12.90;;;;;;;29.92;100.00;98571.32;109049;1253;66175;-75
2023/06/09 09:53:07;;;;;;;14.30;13.10;;;;;;;30.18;100.00;98569.03;109415;1254;60116;-74
2023/06/09 09:55:35;;;;;;;14.40;13.20;;;;;;;30.48;100.00;98564.30;109403;1253;63852;-77
2023/06/09 09:58:07;;;;;;;13.60;12.60;;;;;;;30.76;100.00;98560.33;109371;1253;59034;-75
2023/06/09 10:00:38;;;;;;;13.80;12.40;;;;;;;30.79;100.00;98556.48;109419;1253;59076;-75
2023/06/09 10:03:09;;;;;;;14.00;12.90;;;;;;;30.84;99.32;98553.09;109434;1253;65159;-76
2023/06/09 10:05:39;;;;;;;13.80;12.70;;;;;;;30.76;89.36;98551.91;109416;1254;61343;-75
2023/06/09 10:08:06;;;;;;;13.80;12.60;;;;;;;30.63;83.66;98546.25;109448;1253;64038;-75
2023/06/09 10:10:33;;;;;;;12.80;11.60;;;;;;;30.72;80.71;98550.67;109379;1254;59025;-76
2023/06/09 10:13:03;;;;;;;13.90;12.60;;;;;;;30.76;74.28;98551.36;109415;1254;59242;-75
2023/06/09 10:15:31;;;;;;;13.20;12.10;;;;;;;30.57;71.29;98551.14;109454;1253;64674;-76
2023/06/09 10:17:58;;;;;;;13.80;12.70;;;;;;;30.21;69.34;98546.83;109486;1253;60252;-76
2023/06/09 10:20:25;;;;;;;13.70;12.60;;;;;;;29.85;68.54;98544.02;109420;1254;65288;-75
2023/06/09 10:22:53;;;;;;;13.40;12.40;;;;;;;29.59;68.34;98548.41;109452;1254;58975;-75
2023/06/09 10:25:20;;;;;;;14.20;12.70;;;;;;;29.39;68.15;98552.79;109459;1253;59138;-76
2023/06/09 10:27:49;;;;;;;13.30;11.90;;;;;;;29.03;66.61;98549.58;109171;1259;65741;-75
2023/06/09 10:30:17;;;;;;;13.80;12.60;;;;;;;28.63;67.12;98544.59;109191;1254;58962;-76
2023/06/09 10:32:49;;;;;;;14.90;12.60;;;;;;;28.50;68.48;98546.40;109013;1258;62635;-74
2023/06/09 10:35:19;;;;;;;12.60;11.50;;;;;;;28.50;69.12;98543.86;109388;1254;58998;-75
2023/06/09 10:37:46;;;;;;;12.90;12.00;;;;;;;28.52;68.64;98542.92;109450;1254;58968;-74
2023/06/09 10:40:37;;;;;;;12.60;11.70;;;;;;;28.48;68.38;98544.79;109475;1254;66644;-73
2023/06/09 10:43:40;;;;;;;12.20;11.20;;;;;;;28.38;67.74;98542.84;109435;1254;58982;-74
2023/06/09 10:46:07;;;;;;;13.20;12.10;;;;;;;28.40;68.12;98542.61;108714;1262;62967;-74
2023/06/09 10:48:50;;;;;;;12.80;11.90;;;;;;;28.54;68.78;98538.38;108702;1264;59320;-73
2023/06/09 10:51:26;;;;;;;12.90;11.80;;;;;;;28.71;68.57;98532.77;108724;1264;59358;-74
2023/06/09 10:54:09;;;;;;;13.50;12.50;;;;;;;28.85;68.61;98531.42;108752;1263;66262;-73
2023/06/09 10:56:40;;;;;;;12.50;11.50;;;;;;;29.02;68.69;98528.91;108730;1264;59374;-74
2023/06/09 10:59:25;;;;;;;11.80;10.80;;;;;;;29.09;67.49;98531.11;108723;1263;62952;-74
2023/06/09 11:02:01;;;;;;;12.40;11.50;;;;;;;29.14;67.28;98531.08;108740;1264;59062;-74
2023/06/09 11:04:37;;;;;;;12.30;11.30;;;;;;;29.18;67.52;98528.48;108699;1263;59130;-74
2023/06/09 11:07:14;;;;;;;14.20;12.10;;;;;;;29.25;67.79;98527.45;108739;1264;65760;-73